sensor_id;sensor_type;location;lat;lon;timestamp;P1;durP1;ratioP1;P2;durP2;ratioP2
18702;SDS011;9481;48.796;9.210;2022-09-03T00:07:36;1.33;;;1.13;;
18702;SDS011;9481;48.796;9.210;2022-09-03T00:10:27;1.73;;;1.03;;
18702;SDS011;9481;48.796;9.210;2022-09-03T00:13:04;1.00;;;0.90;;
18702;SDS011;9481;48.796;9.210;2022-09-03T00:15:34;2.10;;;1.10;;
18702;SDS011;9481;48.796;9.210;2022-09-03T00:18:11;1.07;;;0.80;;
18702;SDS011;9481;48.796;9.210;2022-09-03T00:20:45;1.67;;;0.90;;
18702;SDS011;9481;48.796;9.210;2022-09-03T00:23:24;1.43;;;1.20;;
18702;SDS011;9481;48.796;9.210;2022-09-03T00:26:13;1.57;;;1.10;;
18702;SDS011;9481;48.796;9.210;2022-09-03T00:29:04;1.00;;;1.00;;
18702;SDS011;9481;48.796;9.210;2022-09-03T00:31:55;4.37;;;1.13;;
18702;SDS011;9481;48.796;9.210;2022-09-03T00:34:33;1.13;;;1.03;;
18702;SDS011;9481;48.796;9.210;2022-09-03T00:37:06;1.43;;;1.20;;
18702;SDS011;9481;48.796;9.210;2022-09-03T00:39:34;1.07;;;1.00;;
18702;SDS011;9481;48.796;9.210;2022-09-03T00:42:17;2.77;;;1.10;;
18702;SDS011;9481;48.796;9.210;2022-09-03T00:45:15;0.87;;;0.83;;
18702;SDS011;9481;48.796;9.210;2022-09-03T00:48:12;2.00;;;1.07;;
18702;SDS011;9481;48.796;9.210;2022-09-03T00:56:29;2.30;;;1.10;;
18702;SDS011;9481;48.796;9.210;2022-09-03T00:59:22;1.57;;;1.10;;
18702;SDS011;9481;48.796;9.210;2022-09-03T01:03:05;1.87;;;1.00;;
18702;SDS011;9481;48.796;9.210;2022-09-03T01:27:14;1.53;;;1.10;;
18702;SDS011;9481;48.796;9.210;2022-09-03T01:30:09;2.33;;;0.90;;
18702;SDS011;9481;48.796;9.210;2022-09-03T01:39:11;1.30;;;1.10;;
18702;SDS011;9481;48.796;9.210;2022-09-03T02:00:00;4.13;;;1.40;;
18702;SDS011;9481;48.796;9.210;2022-09-03T02:02:41;1.70;;;1.10;;
18702;SDS011;9481;48.796;9.210;2022-09-03T02:05:30;1.20;;;1.10;;
18702;SDS011;9481;48.796;9.210;2022-09-03T02:08:00;2.30;;;1.20;;
18702;SDS011;9481;48.796;9.210;2022-09-03T02:10:40;1.30;;;1.20;;
18702;SDS011;9481;48.796;9.210;2022-09-03T02:15:59;2.60;;;1.63;;
18702;SDS011;9481;48.796;9.210;2022-09-03T02:18:36;2.27;;;1.30;;
18702;SDS011;9481;48.796;9.210;2022-09-03T02:21:10;1.73;;;1.13;;
18702;SDS011;9481;48.796;9.210;2022-09-03T02:23:45;3.23;;;1.00;;
18702;SDS011;9481;48.796;9.210;2022-09-03T02:26:14;1.60;;;1.17;;
18702;SDS011;9481;48.796;9.210;2022-09-03T02:28:45;2.67;;;1.20;;
18702;SDS011;9481;48.796;9.210;2022-09-03T02:31:11;2.47;;;1.20;;
18702;SDS011;9481;48.796;9.210;2022-09-03T02:33:38;1.40;;;1.30;;
18702;SDS011;9481;48.796;9.210;2022-09-03T02:36:08;1.40;;;1.30;;
18702;SDS011;9481;48.796;9.210;2022-09-03T02:38:37;3.23;;;1.30;;
18702;SDS011;9481;48.796;9.210;2022-09-03T02:41:07;2.47;;;1.40;;
18702;SDS011;9481;48.796;9.210;2022-09-03T02:46:13;2.50;;;1.70;;
18702;SDS011;9481;48.796;9.210;2022-09-03T02:48:46;1.50;;;1.40;;
18702;SDS011;9481;48.796;9.210;2022-09-03T02:51:13;2.77;;;1.27;;
18702;SDS011;9481;48.796;9.210;2022-09-03T02:53:38;1.97;;;1.00;;
18702;SDS011;9481;48.796;9.210;2022-09-03T02:56:04;3.73;;;1.47;;
18702;SDS011;9481;48.796;9.210;2022-09-03T02:58:30;1.33;;;1.10;;
18702;SDS011;9481;48.796;9.210;2022-09-03T03:00:56;1.83;;;1.00;;
18702;SDS011;9481;48.796;9.210;2022-09-03T03:03:22;2.43;;;1.20;;
18702;SDS011;9481;48.796;9.210;2022-09-03T03:05:55;2.57;;;1.30;;
18702;SDS011;9481;48.796;9.210;2022-09-03T03:08:28;1.60;;;1.23;;
18702;SDS011;9481;48.796;9.210;2022-09-03T03:10:56;3.57;;;1.07;;
18702;SDS011;9481;48.796;9.210;2022-09-03T03:13:25;1.90;;;1.03;;
18702;SDS011;9481;48.796;9.210;2022-09-03T03:15:56;1.37;;;1.20;;
18702;SDS011;9481;48.796;9.210;2022-09-03T03:18:23;1.30;;;1.17;;
18702;SDS011;9481;48.796;9.210;2022-09-03T03:20:50;2.20;;;1.20;;
18702;SDS011;9481;48.796;9.210;2022-09-03T03:23:16;1.43;;;1.30;;
18702;SDS011;9481;48.796;9.210;2022-09-03T03:25:42;1.50;;;1.23;;
18702;SDS011;9481;48.796;9.210;2022-09-03T03:28:08;2.07;;;1.23;;
18702;SDS011;9481;48.796;9.210;2022-09-03T03:30:35;1.40;;;1.30;;
18702;SDS011;9481;48.796;9.210;2022-09-03T03:33:06;1.47;;;1.20;;
18702;SDS011;9481;48.796;9.210;2022-09-03T03:35:34;1.40;;;1.13;;
18702;SDS011;9481;48.796;9.210;2022-09-03T03:38:00;2.57;;;1.20;;
18702;SDS011;9481;48.796;9.210;2022-09-03T03:40:26;1.20;;;1.10;;
18702;SDS011;9481;48.796;9.210;2022-09-03T03:42:52;1.40;;;1.30;;
18702;SDS011;9481;48.796;9.210;2022-09-03T03:45:18;1.23;;;1.10;;
18702;SDS011;9481;48.796;9.210;2022-09-03T03:47:44;2.73;;;1.20;;
18702;SDS011;9481;48.796;9.210;2022-09-03T03:50:10;2.13;;;1.40;;
18702;SDS011;9481;48.796;9.210;2022-09-03T03:52:36;1.40;;;1.30;;
18702;SDS011;9481;48.796;9.210;2022-09-03T03:55:01;2.33;;;1.40;;
18702;SDS011;9481;48.796;9.210;2022-09-03T03:57:28;1.87;;;1.20;;
18702;SDS011;9481;48.796;9.210;2022-09-03T03:59:56;1.60;;;1.30;;
18702;SDS011;9481;48.796;9.210;2022-09-03T04:02:21;1.50;;;1.40;;
18702;SDS011;9481;48.796;9.210;2022-09-03T04:04:47;6.10;;;1.33;;
18702;SDS011;9481;48.796;9.210;2022-09-03T04:07:13;1.90;;;1.30;;
18702;SDS011;9481;48.796;9.210;2022-09-03T04:09:39;1.80;;;1.40;;
18702;SDS011;9481;48.796;9.210;2022-09-03T04:12:04;1.77;;;1.57;;
18702;SDS011;9481;48.796;9.210;2022-09-03T04:14:32;1.07;;;1.07;;
18702;SDS011;9481;48.796;9.210;2022-09-03T04:16:59;2.50;;;1.40;;
18702;SDS011;9481;48.796;9.210;2022-09-03T04:19:26;5.00;;;1.57;;
18702;SDS011;9481;48.796;9.210;2022-09-03T04:21:54;2.60;;;1.57;;
18702;SDS011;9481;48.796;9.210;2022-09-03T04:24:20;4.50;;;1.50;;
18702;SDS011;9481;48.796;9.210;2022-09-03T04:26:46;3.00;;;1.40;;
18702;SDS011;9481;48.796;9.210;2022-09-03T04:29:14;2.80;;;1.57;;
18702;SDS011;9481;48.796;9.210;2022-09-03T04:31:40;1.57;;;1.47;;
18702;SDS011;9481;48.796;9.210;2022-09-03T04:34:25;1.37;;;1.27;;
18702;SDS011;9481;48.796;9.210;2022-09-03T04:36:51;2.83;;;1.20;;
18702;SDS011;9481;48.796;9.210;2022-09-03T04:39:17;1.47;;;1.37;;
18702;SDS011;9481;48.796;9.210;2022-09-03T04:41:43;2.13;;;1.27;;
18702;SDS011;9481;48.796;9.210;2022-09-03T04:44:08;3.33;;;1.40;;
18702;SDS011;9481;48.796;9.210;2022-09-03T04:46:34;3.03;;;1.50;;
18702;SDS011;9481;48.796;9.210;2022-09-03T04:49:00;1.90;;;1.23;;
18702;SDS011;9481;48.796;9.210;2022-09-03T04:51:26;1.80;;;1.67;;
18702;SDS011;9481;48.796;9.210;2022-09-03T04:53:54;1.50;;;1.40;;
18702;SDS011;9481;48.796;9.210;2022-09-03T04:56:25;3.17;;;1.50;;
18702;SDS011;9481;48.796;9.210;2022-09-03T04:58:54;1.30;;;1.20;;
18702;SDS011;9481;48.796;9.210;2022-09-03T05:01:26;2.37;;;1.50;;
18702;SDS011;9481;48.796;9.210;2022-09-03T05:03:55;1.70;;;1.40;;
18702;SDS011;9481;48.796;9.210;2022-09-03T05:06:22;2.60;;;1.60;;
18702;SDS011;9481;48.796;9.210;2022-09-03T05:08:50;2.07;;;1.30;;
18702;SDS011;9481;48.796;9.210;2022-09-03T05:11:18;1.57;;;1.47;;
18702;SDS011;9481;48.796;9.210;2022-09-03T05:13:48;1.77;;;1.60;;
18702;SDS011;9481;48.796;9.210;2022-09-03T05:16:16;1.43;;;1.33;;
18702;SDS011;9481;48.796;9.210;2022-09-03T05:18:43;2.87;;;1.60;;
18702;SDS011;9481;48.796;9.210;2022-09-03T05:21:12;4.40;;;1.70;;
18702;SDS011;9481;48.796;9.210;2022-09-03T05:23:41;1.53;;;1.33;;
18702;SDS011;9481;48.796;9.210;2022-09-03T05:26:22;2.27;;;1.50;;
18702;SDS011;9481;48.796;9.210;2022-09-03T05:28:54;2.00;;;1.60;;
18702;SDS011;9481;48.796;9.210;2022-09-03T05:31:23;2.90;;;1.57;;
18702;SDS011;9481;48.796;9.210;2022-09-03T05:33:53;1.50;;;1.40;;
18702;SDS011;9481;48.796;9.210;2022-09-03T05:36:25;3.33;;;1.30;;
18702;SDS011;9481;48.796;9.210;2022-09-03T05:38:56;2.03;;;1.50;;
18702;SDS011;9481;48.796;9.210;2022-09-03T05:41:23;2.20;;;1.40;;
18702;SDS011;9481;48.796;9.210;2022-09-03T05:43:51;1.70;;;1.57;;
18702;SDS011;9481;48.796;9.210;2022-09-03T05:46:23;1.60;;;1.33;;
18702;SDS011;9481;48.796;9.210;2022-09-03T05:48:57;1.93;;;1.50;;
18702;SDS011;9481;48.796;9.210;2022-09-03T05:51:25;3.30;;;1.50;;
18702;SDS011;9481;48.796;9.210;2022-09-03T05:53:51;3.07;;;1.40;;
18702;SDS011;9481;48.796;9.210;2022-09-03T05:56:18;4.03;;;1.57;;
18702;SDS011;9481;48.796;9.210;2022-09-03T05:58:48;1.73;;;1.60;;
18702;SDS011;9481;48.796;9.210;2022-09-03T06:04:09;2.40;;;1.30;;
18702;SDS011;9481;48.796;9.210;2022-09-03T06:06:40;3.23;;;1.70;;
18702;SDS011;9481;48.796;9.210;2022-09-03T06:09:20;1.67;;;1.43;;
18702;SDS011;9481;48.796;9.210;2022-09-03T06:11:46;3.10;;;1.43;;
18702;SDS011;9481;48.796;9.210;2022-09-03T06:14:16;3.00;;;1.40;;
18702;SDS011;9481;48.796;9.210;2022-09-03T06:16:45;3.37;;;1.73;;
18702;SDS011;9481;48.796;9.210;2022-09-03T06:19:14;2.10;;;1.70;;
18702;SDS011;9481;48.796;9.210;2022-09-03T06:21:41;2.17;;;1.70;;
18702;SDS011;9481;48.796;9.210;2022-09-03T06:24:09;2.43;;;1.60;;
18702;SDS011;9481;48.796;9.210;2022-09-03T06:26:51;4.70;;;1.50;;
18702;SDS011;9481;48.796;9.210;2022-09-03T06:29:16;2.10;;;1.87;;
18702;SDS011;9481;48.796;9.210;2022-09-03T06:31:44;2.23;;;1.77;;
18702;SDS011;9481;48.796;9.210;2022-09-03T06:34:12;2.03;;;1.80;;
18702;SDS011;9481;48.796;9.210;2022-09-03T06:36:38;3.53;;;2.00;;
18702;SDS011;9481;48.796;9.210;2022-09-03T06:39:05;2.37;;;2.00;;
18702;SDS011;9481;48.796;9.210;2022-09-03T06:41:31;2.70;;;1.90;;
18702;SDS011;9481;48.796;9.210;2022-09-03T06:44:05;2.97;;;1.80;;
18702;SDS011;9481;48.796;9.210;2022-09-03T06:46:36;3.27;;;1.80;;
18702;SDS011;9481;48.796;9.210;2022-09-03T06:49:04;2.00;;;1.80;;
18702;SDS011;9481;48.796;9.210;2022-09-03T06:51:30;2.00;;;1.70;;
18702;SDS011;9481;48.796;9.210;2022-09-03T06:54:02;2.70;;;1.60;;
18702;SDS011;9481;48.796;9.210;2022-09-03T06:56:33;1.90;;;1.70;;
18702;SDS011;9481;48.796;9.210;2022-09-03T06:59:08;3.57;;;1.87;;
18702;SDS011;9481;48.796;9.210;2022-09-03T07:01:36;2.57;;;1.60;;
18702;SDS011;9481;48.796;9.210;2022-09-03T07:04:05;3.30;;;1.93;;
18702;SDS011;9481;48.796;9.210;2022-09-03T07:06:36;3.20;;;1.70;;
18702;SDS011;9481;48.796;9.210;2022-09-03T07:09:08;4.60;;;2.03;;
18702;SDS011;9481;48.796;9.210;2022-09-03T07:11:35;5.70;;;2.10;;
18702;SDS011;9481;48.796;9.210;2022-09-03T07:14:04;3.13;;;2.00;;
18702;SDS011;9481;48.796;9.210;2022-09-03T07:16:33;3.27;;;2.00;;
18702;SDS011;9481;48.796;9.210;2022-09-03T07:19:01;2.67;;;1.80;;
18702;SDS011;9481;48.796;9.210;2022-09-03T07:21:29;2.50;;;1.87;;
18702;SDS011;9481;48.796;9.210;2022-09-03T07:24:05;1.93;;;1.73;;
18702;SDS011;9481;48.796;9.210;2022-09-03T07:26:33;2.90;;;2.00;;
18702;SDS011;9481;48.796;9.210;2022-09-03T07:29:07;4.53;;;2.03;;
18702;SDS011;9481;48.796;9.210;2022-09-03T07:31:34;2.23;;;1.90;;
18702;SDS011;9481;48.796;9.210;2022-09-03T07:34:04;3.37;;;2.20;;
18702;SDS011;9481;48.796;9.210;2022-09-03T07:36:34;2.37;;;1.90;;
18702;SDS011;9481;48.796;9.210;2022-09-03T07:39:12;3.70;;;1.90;;
18702;SDS011;9481;48.796;9.210;2022-09-03T07:41:39;2.47;;;2.20;;
18702;SDS011;9481;48.796;9.210;2022-09-03T07:44:10;2.27;;;1.70;;
18702;SDS011;9481;48.796;9.210;2022-09-03T07:46:43;2.33;;;1.80;;
18702;SDS011;9481;48.796;9.210;2022-09-03T07:49:11;2.80;;;1.80;;
18702;SDS011;9481;48.796;9.210;2022-09-03T07:51:37;3.60;;;1.90;;
18702;SDS011;9481;48.796;9.210;2022-09-03T07:54:04;3.60;;;2.27;;
18702;SDS011;9481;48.796;9.210;2022-09-03T07:56:35;2.90;;;2.20;;
18702;SDS011;9481;48.796;9.210;2022-09-03T07:59:03;2.47;;;2.20;;
18702;SDS011;9481;48.796;9.210;2022-09-03T08:01:30;3.60;;;1.90;;
18702;SDS011;9481;48.796;9.210;2022-09-03T08:03:57;4.67;;;2.20;;
18702;SDS011;9481;48.796;9.210;2022-09-03T08:06:24;2.50;;;2.30;;
18702;SDS011;9481;48.796;9.210;2022-09-03T08:11:24;2.50;;;2.30;;
18702;SDS011;9481;48.796;9.210;2022-09-03T08:13:56;2.97;;;2.40;;
18702;SDS011;9481;48.796;9.210;2022-09-03T08:16:27;2.60;;;2.40;;
18702;SDS011;9481;48.796;9.210;2022-09-03T08:18:55;3.73;;;2.80;;
18702;SDS011;9481;48.796;9.210;2022-09-03T08:21:21;2.93;;;2.50;;
18702;SDS011;9481;48.796;9.210;2022-09-03T08:23:49;5.00;;;2.30;;
18702;SDS011;9481;48.796;9.210;2022-09-03T08:26:19;3.40;;;2.27;;
18702;SDS011;9481;48.796;9.210;2022-09-03T08:28:46;4.90;;;2.47;;
18702;SDS011;9481;48.796;9.210;2022-09-03T08:31:17;2.53;;;2.33;;
18702;SDS011;9481;48.796;9.210;2022-09-03T08:33:46;2.93;;;2.40;;
18702;SDS011;9481;48.796;9.210;2022-09-03T08:36:21;4.10;;;2.57;;
18702;SDS011;9481;48.796;9.210;2022-09-03T08:38:51;4.80;;;2.33;;
18702;SDS011;9481;48.796;9.210;2022-09-03T08:47:22;2.40;;;2.20;;
18702;SDS011;9481;48.796;9.210;2022-09-03T08:52:48;3.20;;;2.50;;
18702;SDS011;9481;48.796;9.210;2022-09-03T08:58:18;2.50;;;2.30;;
18702;SDS011;9481;48.796;9.210;2022-09-03T09:00:58;4.40;;;2.70;;
18702;SDS011;9481;48.796;9.210;2022-09-03T09:07:38;2.53;;;2.33;;
18702;SDS011;9481;48.796;9.210;2022-09-03T09:10:23;6.57;;;2.37;;
18702;SDS011;9481;48.796;9.210;2022-09-03T09:13:08;2.40;;;2.20;;
18702;SDS011;9481;48.796;9.210;2022-09-03T09:19:12;2.30;;;2.10;;
18702;SDS011;9481;48.796;9.210;2022-09-03T09:21:57;2.63;;;2.40;;
18702;SDS011;9481;48.796;9.210;2022-09-03T09:25:19;3.20;;;2.37;;
18702;SDS011;9481;48.796;9.210;2022-09-03T09:27:51;2.37;;;2.17;;
18702;SDS011;9481;48.796;9.210;2022-09-03T09:30:28;2.00;;;1.90;;
18702;SDS011;9481;48.796;9.210;2022-09-03T09:32:56;2.00;;;1.90;;
18702;SDS011;9481;48.796;9.210;2022-09-03T09:35:24;2.30;;;2.13;;
18702;SDS011;9481;48.796;9.210;2022-09-03T09:37:51;2.90;;;2.23;;
18702;SDS011;9481;48.796;9.210;2022-09-03T09:40:28;3.33;;;2.20;;
18702;SDS011;9481;48.796;9.210;2022-09-03T09:43:17;2.50;;;2.30;;
18702;SDS011;9481;48.796;9.210;2022-09-03T09:45:48;3.67;;;2.53;;
18702;SDS011;9481;48.796;9.210;2022-09-03T09:48:17;2.37;;;2.17;;
18702;SDS011;9481;48.796;9.210;2022-09-03T09:51:05;2.70;;;2.50;;
18702;SDS011;9481;48.796;9.210;2022-09-03T09:53:35;4.57;;;2.30;;
18702;SDS011;9481;48.796;9.210;2022-09-03T09:56:02;4.90;;;2.23;;
18702;SDS011;9481;48.796;9.210;2022-09-03T09:58:28;3.17;;;2.37;;
18702;SDS011;9481;48.796;9.210;2022-09-03T10:03:48;2.50;;;2.30;;
18702;SDS011;9481;48.796;9.210;2022-09-03T10:06:24;2.50;;;2.30;;
18702;SDS011;9481;48.796;9.210;2022-09-03T10:09:13;2.40;;;2.20;;
18702;SDS011;9481;48.796;9.210;2022-09-03T10:11:49;2.40;;;2.20;;
18702;SDS011;9481;48.796;9.210;2022-09-03T10:14:44;4.03;;;2.50;;
18702;SDS011;9481;48.796;9.210;2022-09-03T10:17:34;2.80;;;2.60;;
18702;SDS011;9481;48.796;9.210;2022-09-03T10:20:27;3.17;;;2.23;;
18702;SDS011;9481;48.796;9.210;2022-09-03T10:23:21;2.20;;;2.00;;
18702;SDS011;9481;48.796;9.210;2022-09-03T10:26:04;2.50;;;2.30;;
18702;SDS011;9481;48.796;9.210;2022-09-03T10:28:39;2.80;;;2.60;;
18702;SDS011;9481;48.796;9.210;2022-09-03T10:31:19;2.77;;;2.43;;
18702;SDS011;9481;48.796;9.210;2022-09-03T10:34:13;2.90;;;2.67;;
18702;SDS011;9481;48.796;9.210;2022-09-03T10:36:59;2.57;;;2.37;;
18702;SDS011;9481;48.796;9.210;2022-09-03T10:40:04;4.03;;;2.47;;
18702;SDS011;9481;48.796;9.210;2022-09-03T10:45:35;3.20;;;2.47;;
18702;SDS011;9481;48.796;9.210;2022-09-03T10:48:57;2.63;;;2.30;;
18702;SDS011;9481;48.796;9.210;2022-09-03T10:51:49;3.30;;;2.60;;
18702;SDS011;9481;48.796;9.210;2022-09-03T11:00:52;2.70;;;2.50;;
18702;SDS011;9481;48.796;9.210;2022-09-03T11:03:44;2.80;;;2.47;;
18702;SDS011;9481;48.796;9.210;2022-09-03T11:06:22;2.77;;;2.37;;
18702;SDS011;9481;48.796;9.210;2022-09-03T11:11:51;4.00;;;2.80;;
18702;SDS011;9481;48.796;9.210;2022-09-03T11:17:06;2.93;;;2.67;;
18702;SDS011;9481;48.796;9.210;2022-09-03T11:19:45;2.70;;;2.50;;
18702;SDS011;9481;48.796;9.210;2022-09-03T11:22:19;4.07;;;2.60;;
18702;SDS011;9481;48.796;9.210;2022-09-03T11:24:49;3.00;;;2.77;;
18702;SDS011;9481;48.796;9.210;2022-09-03T11:27:30;2.50;;;2.30;;
18702;SDS011;9481;48.796;9.210;2022-09-03T11:30:07;2.60;;;2.40;;
18702;SDS011;9481;48.796;9.210;2022-09-03T11:35:26;3.30;;;3.00;;
18702;SDS011;9481;48.796;9.210;2022-09-03T11:37:59;2.67;;;2.47;;
18702;SDS011;9481;48.796;9.210;2022-09-03T11:43:04;3.03;;;2.60;;
18702;SDS011;9481;48.796;9.210;2022-09-03T11:45:59;2.60;;;2.40;;
18702;SDS011;9481;48.796;9.210;2022-09-03T11:48:46;2.77;;;2.57;;
18702;SDS011;9481;48.796;9.210;2022-09-03T11:56:38;3.00;;;2.60;;
18702;SDS011;9481;48.796;9.210;2022-09-03T11:59:15;3.50;;;2.40;;
18702;SDS011;9481;48.796;9.210;2022-09-03T12:02:00;2.60;;;2.40;;
18702;SDS011;9481;48.796;9.210;2022-09-03T12:10:08;3.07;;;2.73;;
18702;SDS011;9481;48.796;9.210;2022-09-03T12:16:17;3.40;;;3.10;;
18702;SDS011;9481;48.796;9.210;2022-09-03T12:22:01;6.97;;;4.77;;
18702;SDS011;9481;48.796;9.210;2022-09-03T12:24:28;4.57;;;2.23;;
18702;SDS011;9481;48.796;9.210;2022-09-03T12:26:56;4.00;;;1.60;;
18702;SDS011;9481;48.796;9.210;2022-09-03T12:29:26;3.13;;;1.30;;
18702;SDS011;9481;48.796;9.210;2022-09-03T12:31:55;1.37;;;1.27;;
18702;SDS011;9481;48.796;9.210;2022-09-03T12:34:35;2.00;;;1.20;;
18702;SDS011;9481;48.796;9.210;2022-09-03T12:37:01;2.63;;;1.00;;
18702;SDS011;9481;48.796;9.210;2022-09-03T12:39:27;3.63;;;1.40;;
18702;SDS011;9481;48.796;9.210;2022-09-03T12:41:56;1.13;;;1.03;;
18702;SDS011;9481;48.796;9.210;2022-09-03T12:47:04;1.17;;;0.90;;
18702;SDS011;9481;48.796;9.210;2022-09-03T12:49:44;1.27;;;1.03;;
18702;SDS011;9481;48.796;9.210;2022-09-03T12:54:55;1.10;;;1.00;;
18702;SDS011;9481;48.796;9.210;2022-09-03T12:57:34;5.53;;;1.30;;
18702;SDS011;9481;48.796;9.210;2022-09-03T13:00:05;2.33;;;1.13;;
18702;SDS011;9481;48.796;9.210;2022-09-03T13:02:54;1.90;;;1.43;;
18702;SDS011;9481;48.796;9.210;2022-09-03T13:05:33;2.07;;;1.43;;
18702;SDS011;9481;48.796;9.210;2022-09-03T13:08:08;2.17;;;1.50;;
18702;SDS011;9481;48.796;9.210;2022-09-03T13:10:42;2.73;;;1.63;;
18702;SDS011;9481;48.796;9.210;2022-09-03T13:13:16;2.40;;;1.47;;
18702;SDS011;9481;48.796;9.210;2022-09-03T13:15:55;1.90;;;1.10;;
18702;SDS011;9481;48.796;9.210;2022-09-03T13:18:28;1.73;;;1.40;;
18702;SDS011;9481;48.796;9.210;2022-09-03T13:23:35;2.17;;;1.40;;
18702;SDS011;9481;48.796;9.210;2022-09-03T13:26:33;2.13;;;1.23;;
18702;SDS011;9481;48.796;9.210;2022-09-03T13:29:14;2.40;;;1.50;;
18702;SDS011;9481;48.796;9.210;2022-09-03T13:35:08;2.57;;;1.53;;
18702;SDS011;9481;48.796;9.210;2022-09-03T13:43:43;2.77;;;1.40;;
18702;SDS011;9481;48.796;9.210;2022-09-03T13:49:53;2.10;;;1.03;;
18702;SDS011;9481;48.796;9.210;2022-09-03T13:53:21;1.30;;;1.00;;
18702;SDS011;9481;48.796;9.210;2022-09-03T13:55:48;2.03;;;1.07;;
18702;SDS011;9481;48.796;9.210;2022-09-03T14:03:52;1.47;;;1.10;;
18702;SDS011;9481;48.796;9.210;2022-09-03T14:12:03;1.97;;;1.30;;
18702;SDS011;9481;48.796;9.210;2022-09-03T14:17:52;1.30;;;1.10;;
18702;SDS011;9481;48.796;9.210;2022-09-03T14:21:04;1.60;;;1.20;;
18702;SDS011;9481;48.796;9.210;2022-09-03T14:26:32;1.20;;;1.10;;
18702;SDS011;9481;48.796;9.210;2022-09-03T14:29:02;1.50;;;1.20;;
18702;SDS011;9481;48.796;9.210;2022-09-03T14:40:42;2.47;;;0.87;;
18702;SDS011;9481;48.796;9.210;2022-09-03T14:46:23;2.77;;;1.10;;
18702;SDS011;9481;48.796;9.210;2022-09-03T14:49:08;1.57;;;1.10;;
18702;SDS011;9481;48.796;9.210;2022-09-03T14:54:57;0.87;;;0.87;;
18702;SDS011;9481;48.796;9.210;2022-09-03T15:01:36;1.93;;;1.03;;
18702;SDS011;9481;48.796;9.210;2022-09-03T15:04:01;1.07;;;0.90;;
18702;SDS011;9481;48.796;9.210;2022-09-03T15:06:55;1.10;;;1.00;;
18702;SDS011;9481;48.796;9.210;2022-09-03T15:09:45;1.10;;;1.00;;
18702;SDS011;9481;48.796;9.210;2022-09-03T15:12:39;1.43;;;1.30;;
18702;SDS011;9481;48.796;9.210;2022-09-03T15:27:30;0.97;;;0.90;;
18702;SDS011;9481;48.796;9.210;2022-09-03T15:30:16;1.30;;;1.10;;
18702;SDS011;9481;48.796;9.210;2022-09-03T15:32:49;1.20;;;1.10;;
18702;SDS011;9481;48.796;9.210;2022-09-03T15:35:29;1.63;;;1.20;;
18702;SDS011;9481;48.796;9.210;2022-09-03T15:44:07;1.43;;;1.20;;
18702;SDS011;9481;48.796;9.210;2022-09-03T15:55:14;0.97;;;0.90;;
18702;SDS011;9481;48.796;9.210;2022-09-03T16:09:34;1.90;;;1.10;;
18702;SDS011;9481;48.796;9.210;2022-09-03T16:18:01;1.30;;;1.00;;
18702;SDS011;9481;48.796;9.210;2022-09-03T16:20:42;1.17;;;0.93;;
18702;SDS011;9481;48.796;9.210;2022-09-03T16:26:22;2.47;;;1.30;;
18702;SDS011;9481;48.796;9.210;2022-09-03T16:29:13;1.27;;;1.17;;
18702;SDS011;9481;48.796;9.210;2022-09-03T16:34:49;1.93;;;1.30;;
18702;SDS011;9481;48.796;9.210;2022-09-03T16:40:36;2.60;;;1.53;;
18702;SDS011;9481;48.796;9.210;2022-09-03T16:46:35;5.60;;;1.70;;
18702;SDS011;9481;48.796;9.210;2022-09-03T16:52:14;3.53;;;1.70;;
18702;SDS011;9481;48.796;9.210;2022-09-03T16:55:20;3.43;;;1.73;;
18702;SDS011;9481;48.796;9.210;2022-09-03T16:58:29;1.90;;;1.60;;
18702;SDS011;9481;48.796;9.210;2022-09-03T17:07:33;1.87;;;1.53;;
18702;SDS011;9481;48.796;9.210;2022-09-03T17:10:20;1.60;;;1.40;;
18702;SDS011;9481;48.796;9.210;2022-09-03T17:15:56;2.83;;;1.50;;
18702;SDS011;9481;48.796;9.210;2022-09-03T17:22:05;1.50;;;1.37;;
18702;SDS011;9481;48.796;9.210;2022-09-03T17:24:56;2.40;;;1.50;;
18702;SDS011;9481;48.796;9.210;2022-09-03T17:30:01;1.50;;;1.30;;
18702;SDS011;9481;48.796;9.210;2022-09-03T17:41:50;3.50;;;1.37;;
18702;SDS011;9481;48.796;9.210;2022-09-03T17:50:06;2.40;;;1.60;;
18702;SDS011;9481;48.796;9.210;2022-09-03T17:55:33;2.10;;;1.60;;
18702;SDS011;9481;48.796;9.210;2022-09-03T18:03:41;2.50;;;1.80;;
18702;SDS011;9481;48.796;9.210;2022-09-03T18:06:25;2.43;;;1.33;;
18702;SDS011;9481;48.796;9.210;2022-09-03T18:11:45;2.20;;;1.90;;
18702;SDS011;9481;48.796;9.210;2022-09-03T18:17:08;2.23;;;2.03;;
18702;SDS011;9481;48.796;9.210;2022-09-03T18:20:11;3.00;;;2.10;;
18702;SDS011;9481;48.796;9.210;2022-09-03T18:23:04;3.53;;;2.23;;
18702;SDS011;9481;48.796;9.210;2022-09-03T18:26:00;2.53;;;2.20;;
18702;SDS011;9481;48.796;9.210;2022-09-03T18:29:00;3.17;;;2.20;;
18702;SDS011;9481;48.796;9.210;2022-09-03T18:31:49;3.37;;;2.47;;
18702;SDS011;9481;48.796;9.210;2022-09-03T18:34:34;2.50;;;2.20;;
18702;SDS011;9481;48.796;9.210;2022-09-03T18:37:20;4.97;;;2.50;;
18702;SDS011;9481;48.796;9.210;2022-09-03T18:40:10;2.97;;;2.23;;
18702;SDS011;9481;48.796;9.210;2022-09-03T18:46:13;4.83;;;2.23;;
18702;SDS011;9481;48.796;9.210;2022-09-03T18:52:37;3.50;;;2.20;;
18702;SDS011;9481;48.796;9.210;2022-09-03T18:55:44;3.43;;;2.27;;
18702;SDS011;9481;48.796;9.210;2022-09-03T18:58:55;4.37;;;2.60;;
18702;SDS011;9481;48.796;9.210;2022-09-03T19:02:15;3.53;;;1.87;;
18702;SDS011;9481;48.796;9.210;2022-09-03T19:15:33;2.60;;;2.27;;
18702;SDS011;9481;48.796;9.210;2022-09-03T19:21:55;2.67;;;1.97;;
18702;SDS011;9481;48.796;9.210;2022-09-03T19:25:05;2.03;;;1.87;;
18702;SDS011;9481;48.796;9.210;2022-09-03T19:28:09;2.63;;;2.20;;
18702;SDS011;9481;48.796;9.210;2022-09-03T19:44:44;3.93;;;2.30;;
18702;SDS011;9481;48.796;9.210;2022-09-03T19:48:10;3.13;;;2.00;;
18702;SDS011;9481;48.796;9.210;2022-09-03T19:51:31;2.43;;;2.10;;
18702;SDS011;9481;48.796;9.210;2022-09-03T19:54:25;2.93;;;2.30;;
18702;SDS011;9481;48.796;9.210;2022-09-03T19:57:12;2.50;;;2.00;;
18702;SDS011;9481;48.796;9.210;2022-09-03T20:00:00;3.70;;;2.63;;
18702;SDS011;9481;48.796;9.210;2022-09-03T20:02:47;3.00;;;2.73;;
18702;SDS011;9481;48.796;9.210;2022-09-03T20:05:32;5.13;;;2.30;;
18702;SDS011;9481;48.796;9.210;2022-09-03T20:08:19;2.57;;;2.27;;
18702;SDS011;9481;48.796;9.210;2022-09-03T20:11:06;3.30;;;2.47;;
18702;SDS011;9481;48.796;9.210;2022-09-03T20:13:42;3.00;;;2.70;;
18702;SDS011;9481;48.796;9.210;2022-09-03T20:16:31;3.67;;;2.80;;
18702;SDS011;9481;48.796;9.210;2022-09-03T20:19:15;3.90;;;2.90;;
18702;SDS011;9481;48.796;9.210;2022-09-03T20:22:22;2.47;;;2.27;;
18702;SDS011;9481;48.796;9.210;2022-09-03T20:30:40;2.83;;;2.30;;
18702;SDS011;9481;48.796;9.210;2022-09-03T20:43:06;2.13;;;1.90;;
18702;SDS011;9481;48.796;9.210;2022-09-03T20:47:45;2.30;;;2.10;;
18702;SDS011;9481;48.796;9.210;2022-09-03T20:56:19;2.60;;;2.30;;
18702;SDS011;9481;48.796;9.210;2022-09-03T20:59:09;2.10;;;1.87;;
18702;SDS011;9481;48.796;9.210;2022-09-03T21:02:16;3.17;;;2.00;;
18702;SDS011;9481;48.796;9.210;2022-09-03T21:08:36;2.60;;;2.30;;
18702;SDS011;9481;48.796;9.210;2022-09-03T21:10:55;3.13;;;2.13;;
18702;SDS011;9481;48.796;9.210;2022-09-03T21:16:12;2.20;;;1.97;;
18702;SDS011;9481;48.796;9.210;2022-09-03T21:19:07;3.37;;;2.37;;
18702;SDS011;9481;48.796;9.210;2022-09-03T21:24:29;2.87;;;2.20;;
18702;SDS011;9481;48.796;9.210;2022-09-03T21:27:07;3.80;;;2.10;;
18702;SDS011;9481;48.796;9.210;2022-09-03T21:32:48;2.40;;;2.20;;
18702;SDS011;9481;48.796;9.210;2022-09-03T21:43:53;2.80;;;2.20;;
18702;SDS011;9481;48.796;9.210;2022-09-03T21:46:44;2.83;;;1.97;;
18702;SDS011;9481;48.796;9.210;2022-09-03T21:49:37;2.30;;;2.10;;
18702;SDS011;9481;48.796;9.210;2022-09-03T21:55:40;2.17;;;1.97;;
18702;SDS011;9481;48.796;9.210;2022-09-03T22:01:19;4.00;;;2.17;;
18702;SDS011;9481;48.796;9.210;2022-09-03T22:04:09;2.73;;;2.20;;
18702;SDS011;9481;48.796;9.210;2022-09-03T22:12:48;4.93;;;2.50;;
18702;SDS011;9481;48.796;9.210;2022-09-03T22:15:15;3.20;;;2.13;;
18702;SDS011;9481;48.796;9.210;2022-09-03T22:17:45;2.77;;;2.10;;
18702;SDS011;9481;48.796;9.210;2022-09-03T22:20:18;3.20;;;2.10;;